Time;durP1;ratioP1;P1;durP2;ratioP2;P2;SDS_P1;SDS_P2;PMS_P1;PMS_P2;Temp;Humidity;BMP_temperature;BMP_pressure;BME280_temperature;BME280_humidity;BME280_pressure;Samples;Min_cycle;Max_cycle;Signal;HPM_P1;HPM_P2
2023/12/22 00:01:15;;;;;;;11.07;1.92;;;6.80;91.90;;;;;;5055121;28;20055;-29
2023/12/22 00:03:45;;;;;;;8.18;1.77;;;6.80;91.90;;;;;;5055070;28;20067;-31
2023/12/22 00:06:11;;;;;;;13.70;1.92;;;6.80;91.80;;;;;;5054802;28;20021;-31
2023/12/22 00:08:37;;;;;;;7.53;1.60;;;6.90;91.80;;;;;;5054934;28;20025;-33
2023/12/22 00:11:03;;;;;;;7.30;1.92;;;6.80;91.80;;;;;;5054828;28;20031;-35
2023/12/22 00:13:29;;;;;;;9.27;1.67;;;6.90;91.80;;;;;;5054891;28;20481;-33
2023/12/22 00:15:54;;;;;;;7.13;1.60;;;6.90;91.80;;;;;;5054972;28;20058;-33
2023/12/22 00:18:20;;;;;;;10.35;1.75;;;6.90;91.80;;;;;;5054571;28;20072;-29
2023/12/22 00:20:45;;;;;;;10.32;2.47;;;6.90;91.80;;;;;;5055044;28;20021;-32
2023/12/22 00:23:11;;;;;;;10.27;1.92;;;6.90;91.80;;;;;;5054693;28;20033;-32
2023/12/22 00:25:37;;;;;;;7.78;1.80;;;6.90;91.80;;;;;;5054767;28;20025;-30
2023/12/22 00:28:03;;;;;;;9.57;2.63;;;6.90;91.90;;;;;;5054330;28;20456;-34
2023/12/22 00:30:28;;;;;;;11.77;2.35;;;6.90;91.90;;;;;;5054635;28;20029;-30
2023/12/22 00:32:54;;;;;;;10.00;2.13;;;7.00;92.00;;;;;;5054236;28;20102;-29
2023/12/22 00:35:20;;;;;;;5.28;1.52;;;7.00;91.80;;;;;;5054493;28;20481;-30
2023/12/22 00:37:45;;;;;;;9.73;1.92;;;6.90;91.70;;;;;;5054374;28;20044;-30
2023/12/22 00:40:11;;;;;;;5.25;1.80;;;6.80;91.80;;;;;;5054488;28;20021;-35
2023/12/22 00:42:37;;;;;;;11.30;2.17;;;6.80;92.00;;;;;;5054348;28;20064;-32
2023/12/22 00:45:03;;;;;;;6.38;1.42;;;6.60;92.10;;;;;;5054314;28;20489;-31
2023/12/22 00:47:28;;;;;;;4.00;1.08;;;6.50;92.20;;;;;;5054196;28;20036;-30
2023/12/22 00:49:54;;;;;;;5.72;1.25;;;6.40;92.30;;;;;;5054177;28;20040;-30
2023/12/22 00:52:19;;;;;;;4.78;1.55;;;6.40;92.30;;;;;;5053979;28;20056;-32
2023/12/22 00:54:45;;;;;;;7.03;1.55;;;6.40;92.40;;;;;;5054150;28;20033;-30
2023/12/22 00:57:12;;;;;;;5.65;1.10;;;6.30;92.40;;;;;;5053858;28;20024;-30
2023/12/22 00:59:38;;;;;;;5.13;1.38;;;6.30;92.40;;;;;;5054094;28;20044;-31
2023/12/22 01:02:03;;;;;;;5.35;1.20;;;6.30;92.50;;;;;;5053944;28;20032;-33
2023/12/22 01:04:29;;;;;;;4.57;1.23;;;6.30;92.50;;;;;;5053594;28;20496;-36
2023/12/22 01:06:55;;;;;;;5.70;1.30;;;6.20;92.60;;;;;;5054006;28;20024;-39
2023/12/22 01:09:20;;;;;;;6.47;1.90;;;6.30;92.60;;;;;;5053836;28;20028;-33
2023/12/22 01:11:46;;;;;;;9.25;1.58;;;6.30;92.60;;;;;;5054228;28;20029;-31
2023/12/22 01:14:13;;;;;;;5.93;1.40;;;6.20;92.60;;;;;;5053546;28;20029;-35
2023/12/22 01:16:39;;;;;;;8.27;1.60;;;6.20;92.60;;;;;;5053804;28;20548;-38
2023/12/22 01:19:05;;;;;;;8.38;1.45;;;6.20;92.60;;;;;;5053453;28;20025;-31
2023/12/22 01:21:30;;;;;;;9.65;1.73;;;6.20;92.60;;;;;;5053816;28;20485;-33
2023/12/22 01:23:56;;;;;;;4.60;1.20;;;6.10;92.50;;;;;;5053622;28;20025;-31
2023/12/22 01:26:22;;;;;;;5.43;1.20;;;6.10;92.60;;;;;;5053561;28;20074;-30
2023/12/22 01:28:47;;;;;;;8.35;1.58;;;6.10;92.60;;;;;;5053460;28;20083;-32
2023/12/22 01:31:13;;;;;;;8.65;1.38;;;6.10;92.60;;;;;;5053422;28;20025;-29
2023/12/22 01:33:38;;;;;;;5.32;1.27;;;6.10;92.60;;;;;;5053216;28;20098;-31
2023/12/22 01:36:04;;;;;;;6.32;1.30;;;6.20;92.60;;;;;;5053650;28;20032;-31
2023/12/22 01:38:30;;;;;;;7.50;1.35;;;6.20;92.60;;;;;;5051932;28;20049;-30
2023/12/22 01:40:55;;;;;;;3.75;1.30;;;6.20;92.40;;;;;;5053464;28;20091;-29
2023/12/22 01:43:21;;;;;;;8.02;1.60;;;6.20;92.40;;;;;;5053446;28;20028;-31
2023/12/22 01:45:48;;;;;;;7.22;1.45;;;6.20;92.40;;;;;;5053307;28;20567;-30
2023/12/22 01:48:14;;;;;;;7.25;1.63;;;6.20;92.40;;;;;;5053261;28;20021;-30
2023/12/22 01:50:40;;;;;;;5.68;1.50;;;6.30;92.40;;;;;;5051734;28;20508;-30
2023/12/22 01:53:06;;;;;;;3.53;1.30;;;6.30;92.40;;;;;;5053095;28;20032;-29
2023/12/22 01:55:32;;;;;;;9.70;1.30;;;6.30;92.40;;;;;;5052797;28;20024;-30
2023/12/22 01:57:59;;;;;;;7.07;1.23;;;6.30;92.40;;;;;;5052848;28;20477;-32
2023/12/22 02:00:25;;;;;;;8.23;1.35;;;6.30;92.40;;;;;;5052818;28;20024;-29
2023/12/22 02:02:50;;;;;;;7.28;1.52;;;6.30;92.50;;;;;;5052716;28;20021;-31
2023/12/22 02:05:16;;;;;;;6.95;1.30;;;6.20;92.50;;;;;;5051819;28;20390;-30
2023/12/22 02:07:42;;;;;;;5.13;1.27;;;6.30;92.50;;;;;;5052648;28;20033;-31
2023/12/22 02:10:09;;;;;;;7.60;1.40;;;6.30;92.60;;;;;;5052612;28;20033;-29
2023/12/22 02:12:37;;;;;;;7.60;1.52;;;6.30;92.60;;;;;;5052635;28;20481;-28
2023/12/22 02:15:05;;;;;;;6.20;1.45;;;6.30;92.60;;;;;;5052479;28;20021;-29
2023/12/22 02:17:47;;;;;;;10.85;1.90;;;6.30;92.60;;;;;;5051574;28;20070;-29
2023/12/22 02:20:13;;;;;;;8.05;1.35;;;6.30;92.60;;;;;;5052198;28;20078;-29
2023/12/22 02:22:39;;;;;;;5.28;1.55;;;6.30;92.70;;;;;;5052564;28;20029;-31
2023/12/22 02:25:04;;;;;;;10.25;2.00;;;6.40;92.70;;;;;;5052361;28;20104;-29
2023/12/22 02:27:55;;;;;;;7.30;1.67;;;6.40;92.70;;;;;;5052317;28;20037;-29
2023/12/22 02:30:34;;;;;;;9.98;1.80;;;6.40;92.70;;;;;;5052284;28;20021;-32
2023/12/22 02:33:03;;;;;;;10.48;1.90;;;6.40;92.70;;;;;;5052108;28;20041;-31
2023/12/22 02:35:30;;;;;;;5.97;1.52;;;6.40;92.70;;;;;;5052296;28;20100;-30
2023/12/22 02:38:00;;;;;;;10.38;1.85;;;6.40;92.70;;;;;;5052142;28;20104;-29
2023/12/22 02:40:27;;;;;;;6.97;1.45;;;6.40;92.70;;;;;;5052279;28;20504;-31
2023/12/22 02:42:53;;;;;;;9.38;1.58;;;6.40;92.70;;;;;;5052467;28;20028;-32
2023/12/22 02:45:19;;;;;;;8.82;1.60;;;6.40;93.00;;;;;;5052218;28;20031;-30
2023/12/22 02:47:46;;;;;;;11.82;2.40;;;6.50;92.70;;;;;;5052097;28;20029;-30
2023/12/22 02:50:13;;;;;;;11.50;1.65;;;6.50;92.70;;;;;;5051709;28;20025;-32
2023/12/22 02:52:39;;;;;;;10.82;2.08;;;6.50;92.70;;;;;;5051874;28;20029;-29
2023/12/22 02:55:05;;;;;;;11.23;1.80;;;6.50;93.00;;;;;;5052075;28;20096;-34
2023/12/22 02:57:31;;;;;;;6.70;1.55;;;6.50;92.70;;;;;;5051697;28;20027;-30
2023/12/22 02:59:57;;;;;;;8.60;1.63;;;6.50;92.70;;;;;;5051939;28;20025;-30
2023/12/22 03:02:23;;;;;;;10.68;1.80;;;6.50;92.80;;;;;;5052014;28;20500;-29
2023/12/22 03:04:48;;;;;;;7.53;1.58;;;6.50;92.80;;;;;;5050461;28;20078;-32
2023/12/22 03:07:15;;;;;;;10.80;2.08;;;6.60;92.80;;;;;;5051443;28;20031;-30
2023/12/22 03:09:42;;;;;;;13.55;2.25;;;6.60;92.80;;;;;;5051672;28;20370;-32
2023/12/22 03:12:08;;;;;;;8.40;1.60;;;6.60;92.90;;;;;;5051676;28;20028;-31
2023/12/22 03:14:34;;;;;;;11.90;2.60;;;6.60;92.90;;;;;;5051774;28;20029;-30
2023/12/22 03:17:00;;;;;;;9.77;1.90;;;6.60;92.90;;;;;;5051505;28;20513;-29
2023/12/22 03:19:26;;;;;;;15.68;2.58;;;6.70;92.90;;;;;;5051532;28;20583;-30
2023/12/22 03:21:51;;;;;;;22.10;2.88;;;6.70;92.90;;;;;;5051589;28;20037;-29
2023/12/22 03:24:19;;;;;;;8.95;2.40;;;6.70;92.80;;;;;;5051919;28;20035;-31
2023/12/22 03:26:48;;;;;;;6.57;1.27;;;6.60;92.80;;;;;;5051436;28;20036;-29
2023/12/22 03:29:13;;;;;;;6.65;1.45;;;6.30;92.00;;;;;;5051352;28;20032;-33
2023/12/22 03:31:39;;;;;;;6.13;1.40;;;6.10;92.30;;;;;;5051009;28;20033;-33
2023/12/22 03:34:05;;;;;;;4.63;0.95;;;5.90;92.50;;;;;;5051310;28;20477;-32
2023/12/22 03:36:30;;;;;;;6.55;1.10;;;5.70;92.60;;;;;;5051441;28;20052;-33
2023/12/22 03:38:56;;;;;;;8.43;1.45;;;5.50;92.70;;;;;;5051189;28;20021;-31
2023/12/22 03:41:22;;;;;;;5.93;1.05;;;5.40;92.70;;;;;;5051377;28;20096;-32
2023/12/22 03:43:47;;;;;;;7.28;1.10;;;5.30;92.90;;;;;;5049933;28;20068;-31
2023/12/22 03:46:13;;;;;;;6.38;1.20;;;5.30;93.10;;;;;;5050077;28;20477;-30
2023/12/22 03:48:38;;;;;;;9.05;1.88;;;5.20;93.20;;;;;;5050922;28;20056;-30
2023/12/22 03:51:04;;;;;;;5.10;1.10;;;5.20;93.20;;;;;;5051333;28;20027;-31
2023/12/22 03:53:30;;;;;;;4.30;1.10;;;5.20;93.30;;;;;;5051051;28;20418;-31
2023/12/22 03:55:55;;;;;;;6.13;1.08;;;5.20;93.40;;;;;;5051194;28;20029;-31
2023/12/22 03:58:21;;;;;;;8.00;1.27;;;5.20;93.50;;;;;;5050850;28;20086;-31
2023/12/22 04:00:47;;;;;;;10.10;1.35;;;5.20;93.50;;;;;;5051249;28;20028;-30
2023/12/22 04:03:13;;;;;;;6.15;1.60;;;5.20;93.60;;;;;;5051126;28;20152;-32
2023/12/22 04:05:38;;;;;;;3.60;0.90;;;5.20;93.70;;;;;;5051160;28;20033;-34
2023/12/22 04:08:05;;;;;;;5.30;1.02;;;5.20;93.70;;;;;;5051052;28;20025;-30
2023/12/22 04:10:30;;;;;;;7.15;1.27;;;5.20;93.70;;;;;;5049756;28;20036;-35
2023/12/22 04:12:56;;;;;;;9.07;1.42;;;5.20;93.80;;;;;;5050867;28;20029;-32
2023/12/22 04:15:21;;;;;;;5.32;1.50;;;5.20;94.00;;;;;;5049764;28;20025;-37
2023/12/22 04:17:47;;;;;;;7.32;1.50;;;5.20;94.10;;;;;;5050826;28;20084;-30
2023/12/22 04:20:13;;;;;;;6.90;2.05;;;5.30;94.10;;;;;;5051166;28;20109;-33
2023/12/22 04:22:39;;;;;;;8.05;1.38;;;5.30;94.20;;;;;;5050945;28;20029;-33
2023/12/22 04:25:06;;;;;;;7.72;1.45;;;5.40;94.20;;;;;;5050804;28;20032;-32
2023/12/22 04:27:31;;;;;;;7.28;1.63;;;5.40;94.30;;;;;;5049429;28;20101;-30
2023/12/22 04:29:57;;;;;;;6.57;1.08;;;5.50;94.20;;;;;;5050922;28;20029;-31
2023/12/22 04:32:23;;;;;;;6.65;1.63;;;5.50;94.10;;;;;;5050679;28;20045;-34
2023/12/22 04:34:48;;;;;;;6.45;1.48;;;5.60;94.20;;;;;;5050851;28;20021;-30
2023/12/22 04:37:14;;;;;;;6.88;1.30;;;5.60;94.20;;;;;;5051047;28;20060;-30
2023/12/22 04:39:40;;;;;;;13.43;1.85;;;5.60;94.20;;;;;;5050927;28;20101;-31
2023/12/22 04:42:05;;;;;;;13.70;2.60;;;5.70;94.20;;;;;;5054818;28;20527;-32
2023/12/22 04:44:31;;;;;;;10.75;1.85;;;5.70;94.20;;;;;;5054409;28;20028;-31
2023/12/22 04:46:56;;;;;;;10.48;2.55;;;5.70;94.20;;;;;;5054612;28;20033;-35
2023/12/22 04:49:22;;;;;;;11.77;1.95;;;5.80;94.20;;;;;;5054242;28;20029;-35
2023/12/22 04:51:47;;;;;;;12.27;2.53;;;5.80;94.10;;;;;;5054359;28;20510;-32
2023/12/22 04:54:13;;;;;;;13.65;2.60;;;5.90;94.10;;;;;;5054069;28;20366;-32
2023/12/22 04:56:39;;;;;;;8.05;1.80;;;6.00;94.00;;;;;;5053914;28;20457;-34
2023/12/22 04:59:04;;;;;;;18.80;2.30;;;6.00;94.00;;;;;;5054475;28;20445;-32
2023/12/22 05:01:30;;;;;;;9.40;1.70;;;6.10;94.00;;;;;;5053918;28;20029;-30
2023/12/22 05:03:55;;;;;;;15.68;2.70;;;6.10;93.90;;;;;;5054321;28;20032;-31
2023/12/22 05:06:21;;;;;;;11.40;2.33;;;6.10;93.90;;;;;;5053755;28;20028;-35
2023/12/22 05:08:46;;;;;;;13.02;2.20;;;6.20;93.90;;;;;;5053971;28;20033;-30
2023/12/22 05:11:12;;;;;;;13.50;2.10;;;6.20;93.90;;;;;;5053753;28;20104;-38
2023/12/22 05:13:38;;;;;;;7.30;1.77;;;6.20;93.90;;;;;;5053927;28;20041;-32
2023/12/22 05:16:07;;;;;;;11.60;2.00;;;6.20;93.90;;;;;;5053845;28;20022;-33
2023/12/22 05:18:32;;;;;;;13.23;2.83;;;6.20;93.80;;;;;;5053705;28;20381;-31
2023/12/22 05:20:58;;;;;;;11.38;2.17;;;6.30;93.90;;;;;;5053451;28;20025;-31
2023/12/22 05:23:23;;;;;;;18.40;2.97;;;6.20;93.90;;;;;;5054311;28;20029;-34
2023/12/22 05:25:49;;;;;;;13.40;2.45;;;6.20;93.90;;;;;;5053486;28;20032;-31
2023/12/22 05:28:14;;;;;;;9.40;1.80;;;6.30;93.90;;;;;;5053479;28;20021;-31
2023/12/22 05:30:40;;;;;;;11.30;2.00;;;6.30;93.90;;;;;;5053430;28;20025;-32
2023/12/22 05:33:06;;;;;;;10.40;2.33;;;6.30;93.90;;;;;;5053279;28;20040;-33
2023/12/22 05:35:31;;;;;;;8.38;1.70;;;6.20;93.80;;;;;;5053586;28;20075;-33
2023/12/22 05:37:57;;;;;;;11.93;2.10;;;6.30;93.90;;;;;;5053929;28;20032;-31
2023/12/22 05:40:22;;;;;;;8.07;1.63;;;6.20;94.10;;;;;;5053172;28;20029;-30
2023/12/22 05:42:48;;;;;;;5.25;1.60;;;6.30;93.90;;;;;;5053262;28;20025;-31
2023/12/22 05:45:15;;;;;;;10.70;2.35;;;6.30;93.90;;;;;;5053407;28;20067;-30
2023/12/22 05:47:41;;;;;;;10.75;3.03;;;6.30;93.90;;;;;;5052966;28;20033;-30
2023/12/22 05:50:07;;;;;;;9.80;2.15;;;6.30;93.90;;;;;;5053025;28;20033;-30
2023/12/22 05:52:33;;;;;;;9.85;1.70;;;6.40;93.90;;;;;;5052939;28;20025;-32
2023/12/22 05:54:59;;;;;;;9.13;1.70;;;6.40;93.90;;;;;;5053273;28;20520;-33
2023/12/22 05:57:27;;;;;;;9.70;1.88;;;6.40;93.90;;;;;;5052818;28;20032;-33
2023/12/22 05:59:53;;;;;;;13.52;2.15;;;6.50;93.90;;;;;;5053194;28;20017;-33
2023/12/22 06:02:18;;;;;;;8.73;1.90;;;6.50;93.80;;;;;;5052837;28;20025;-30
2023/12/22 06:04:44;;;;;;;9.98;2.22;;;6.50;93.80;;;;;;5052804;28;20363;-33
2023/12/22 06:07:11;;;;;;;18.63;2.55;;;6.50;93.80;;;;;;5051290;28;20033;-33
2023/12/22 06:09:36;;;;;;;21.05;3.03;;;6.50;93.80;;;;;;5052838;28;20025;-30
2023/12/22 06:12:02;;;;;;;10.07;2.53;;;6.50;93.80;;;;;;5052606;28;20036;-35
2023/12/22 06:14:28;;;;;;;16.40;2.60;;;6.50;94.10;;;;;;5051318;28;20067;-30
2023/12/22 06:16:56;;;;;;;11.63;2.15;;;6.60;93.80;;;;;;5052467;28;20029;-36
2023/12/22 06:19:24;;;;;;;8.02;1.80;;;6.60;93.80;;;;;;5052696;28;20522;-30
2023/12/22 06:21:49;;;;;;;12.55;1.85;;;6.60;93.70;;;;;;5052500;28;20078;-34
2023/12/22 06:24:16;;;;;;;10.60;2.67;;;6.60;93.70;;;;;;5052430;28;20025;-31
2023/12/22 06:26:42;;;;;;;10.30;1.92;;;6.70;93.70;;;;;;5052330;28;20025;-35
2023/12/22 06:29:07;;;;;;;12.45;2.42;;;6.70;93.70;;;;;;5052704;28;20032;-31
2023/12/22 06:31:33;;;;;;;10.60;2.33;;;6.70;93.70;;;;;;5052349;28;20025;-32
2023/12/22 06:34:01;;;;;;;8.68;2.00;;;6.80;93.70;;;;;;5052123;28;20048;-37
2023/12/22 06:36:28;;;;;;;9.45;2.00;;;6.80;93.60;;;;;;5052369;28;20021;-33
2023/12/22 06:38:54;;;;;;;17.05;2.55;;;6.80;93.60;;;;;;5052707;28;20190;-35
2023/12/22 06:41:21;;;;;;;11.15;2.55;;;6.80;93.60;;;;;;5052220;28;20021;-33
2023/12/22 06:43:47;;;;;;;15.02;2.60;;;7.00;93.60;;;;;;5052049;28;20082;-32
2023/12/22 06:46:20;;;;;;;13.00;2.63;;;7.00;93.50;;;;;;5052287;28;20079;-33
2023/12/22 06:48:46;;;;;;;12.57;3.20;;;7.10;93.40;;;;;;5051799;28;20033;-31
2023/12/22 06:51:30;;;;;;;15.35;2.55;;;7.20;93.40;;;;;;5050622;28;20458;-32
2023/12/22 06:53:57;;;;;;;16.65;2.88;;;7.20;93.30;;;;;;5051702;28;20393;-32
2023/12/22 06:56:27;;;;;;;15.93;2.70;;;7.30;93.40;;;;;;5051898;28;20021;-31
2023/12/22 06:58:56;;;;;;;11.32;2.58;;;7.30;93.30;;;;;;5051311;28;20029;-31
2023/12/22 07:01:32;;;;;;;11.93;2.67;;;7.40;93.30;;;;;;5051685;28;20017;-33
2023/12/22 07:04:00;;;;;;;15.27;2.70;;;7.40;93.20;;;;;;5051272;28;20032;-30
2023/12/22 07:06:30;;;;;;;16.58;3.28;;;7.50;93.20;;;;;;5051768;28;20029;-36
2023/12/22 07:09:14;;;;;;;20.42;3.05;;;7.50;93.10;;;;;;5051510;28;20025;-41
2023/12/22 07:11:39;;;;;;;18.38;3.20;;;7.60;93.00;;;;;;5051920;28;20029;-36
2023/12/22 07:14:05;;;;;;;14.43;2.33;;;7.60;93.00;;;;;;5051346;28;20385;-35
2023/12/22 07:16:30;;;;;;;14.85;2.72;;;7.60;92.90;;;;;;5051509;28;20025;-34
2023/12/22 07:18:56;;;;;;;12.88;2.60;;;7.70;92.90;;;;;;5050090;28;20468;-38
2023/12/22 07:21:21;;;;;;;15.30;2.88;;;7.70;92.90;;;;;;5051559;28;20385;-36
2023/12/22 07:23:47;;;;;;;13.52;2.72;;;7.70;92.90;;;;;;5051354;28;20029;-32
2023/12/22 07:26:12;;;;;;;12.68;2.65;;;7.70;92.80;;;;;;5051401;28;20362;-36
2023/12/22 07:28:38;;;;;;;16.83;2.72;;;7.80;92.80;;;;;;5051306;28;20303;-33
2023/12/22 07:31:05;;;;;;;18.80;3.55;;;7.80;92.80;;;;;;5051620;28;20029;-31
2023/12/22 07:33:31;;;;;;;17.35;3.25;;;7.80;92.60;;;;;;5050846;28;20056;-32
2023/12/22 07:35:56;;;;;;;20.05;3.28;;;7.90;92.70;;;;;;5051369;28;20021;-34
2023/12/22 07:38:22;;;;;;;14.52;3.38;;;7.90;92.60;;;;;;5051162;28;20477;-31
2023/12/22 07:40:47;;;;;;;20.33;3.38;;;7.90;92.60;;;;;;5051330;28;20021;-32
2023/12/22 07:43:14;;;;;;;23.38;4.20;;;7.90;92.60;;;;;;5051354;28;20481;-36
2023/12/22 07:45:39;;;;;;;19.85;3.75;;;8.00;92.40;;;;;;5051451;28;20385;-34
2023/12/22 07:48:05;;;;;;;19.55;3.95;;;8.00;92.50;;;;;;5051083;28;20025;-30
2023/12/22 07:50:30;;;;;;;20.02;3.60;;;8.00;92.30;;;;;;5051097;28;20502;-30
2023/12/22 07:52:56;;;;;;;19.88;4.28;;;8.10;92.30;;;;;;5051235;28;20033;-32
2023/12/22 07:55:22;;;;;;;16.80;3.65;;;8.10;92.30;;;;;;5050864;28;20018;-32
2023/12/22 07:57:47;;;;;;;15.75;3.33;;;8.10;92.10;;;;;;5051140;28;20029;-31
2023/12/22 08:00:13;;;;;;;17.30;3.47;;;8.10;92.20;;;;;;5051167;28;20059;-32
2023/12/22 08:02:39;;;;;;;16.83;3.72;;;8.20;92.20;;;;;;5051079;28;20029;-30
2023/12/22 08:05:05;;;;;;;18.13;3.65;;;8.20;92.20;;;;;;5051053;28;20424;-31
2023/12/22 08:07:31;;;;;;;20.13;4.47;;;8.20;92.20;;;;;;5050921;28;20476;-33
2023/12/22 08:09:56;;;;;;;20.27;4.07;;;8.20;92.20;;;;;;5051092;28;20113;-32
2023/12/22 08:12:22;;;;;;;21.55;4.35;;;8.20;92.20;;;;;;5050980;28;20033;-31
2023/12/22 08:14:48;;;;;;;19.05;3.97;;;8.20;92.10;;;;;;5051318;28;20021;-32
2023/12/22 08:17:13;;;;;;;21.08;4.22;;;8.20;92.20;;;;;;5054752;28;20534;-30
2023/12/22 08:19:42;;;;;;;28.15;4.60;;;8.30;92.50;;;;;;5054705;28;20033;-32
2023/12/22 08:22:14;;;;;;;16.08;3.70;;;8.20;92.20;;;;;;5054911;28;20027;-32
2023/12/22 08:24:41;;;;;;;14.52;2.95;;;8.20;92.20;;;;;;5054873;28;20073;-31
2023/12/22 08:27:07;;;;;;;16.63;3.85;;;8.10;92.10;;;;;;5054485;28;20025;-31
2023/12/22 08:29:33;;;;;;;10.93;2.70;;;7.90;92.20;;;;;;5054619;28;20109;-30
2023/12/22 08:31:58;;;;;;;8.27;2.38;;;7.80;92.40;;;;;;5054453;28;20028;-36
2023/12/22 08:34:24;;;;;;;10.05;2.00;;;7.80;92.60;;;;;;5054676;28;20025;-32
2023/12/22 08:36:50;;;;;;;8.75;2.13;;;7.70;92.70;;;;;;5054462;28;20237;-33
2023/12/22 08:39:15;;;;;;;10.52;2.75;;;7.70;92.80;;;;;;5054364;28;20495;-31
2023/12/22 08:41:41;;;;;;;12.35;2.63;;;7.70;92.90;;;;;;5054429;28;20036;-30
2023/12/22 08:44:07;;;;;;;15.55;2.85;;;7.60;93.00;;;;;;5054356;28;20056;-30
2023/12/22 08:46:33;;;;;;;16.27;2.95;;;7.60;93.10;;;;;;5054491;28;20033;-32
2023/12/22 08:48:59;;;;;;;12.60;3.13;;;7.70;93.20;;;;;;5054157;28;20051;-30
2023/12/22 08:51:26;;;;;;;9.60;2.55;;;7.70;93.30;;;;;;5052805;28;20115;-31
2023/12/22 08:53:54;;;;;;;21.08;3.55;;;7.70;93.30;;;;;;5054466;28;20070;-30
2023/12/22 08:56:21;;;;;;;13.93;2.70;;;7.70;93.30;;;;;;5054162;28;20013;-36
2023/12/22 08:58:47;;;;;;;13.00;2.95;;;7.80;93.40;;;;;;5053957;28;20431;-30
2023/12/22 09:01:16;;;;;;;22.80;3.45;;;7.80;93.40;;;;;;5054038;28;20048;-31
2023/12/22 09:03:45;;;;;;;16.17;3.53;;;7.90;93.50;;;;;;5054073;28;20112;-34
2023/12/22 09:06:13;;;;;;;18.52;3.53;;;7.90;93.50;;;;;;5053896;28;20025;-32
2023/12/22 09:08:39;;;;;;;21.95;3.78;;;7.90;93.60;;;;;;5053759;28;20481;-30
2023/12/22 09:11:04;;;;;;;17.20;3.78;;;8.00;93.70;;;;;;5053726;28;20104;-34
2023/12/22 09:13:30;;;;;;;19.90;3.15;;;8.00;93.70;;;;;;5054002;28;20159;-32
2023/12/22 09:15:57;;;;;;;17.38;3.42;;;8.10;93.80;;;;;;5054240;28;20024;-35
2023/12/22 09:18:23;;;;;;;19.02;3.50;;;8.10;93.80;;;;;;5053442;28;20025;-31
2023/12/22 09:20:48;;;;;;;12.63;2.70;;;8.10;93.80;;;;;;5053698;28;20370;-36
2023/12/22 09:23:14;;;;;;;12.15;3.05;;;8.20;93.90;;;;;;5053471;28;20025;-45
2023/12/22 09:25:40;;;;;;;11.70;3.00;;;8.20;93.80;;;;;;5053300;28;20025;-31
2023/12/22 09:28:06;;;;;;;17.85;3.28;;;8.20;93.80;;;;;;5053512;28;20059;-30
2023/12/22 09:30:31;;;;;;;12.30;2.55;;;8.30;93.90;;;;;;5053678;28;20033;-31
2023/12/22 09:32:57;;;;;;;15.35;3.10;;;8.30;93.90;;;;;;5053173;28;20046;-35
2023/12/22 09:35:25;;;;;;;13.20;2.70;;;8.30;93.90;;;;;;5053320;28;20031;-31
2023/12/22 09:37:50;;;;;;;12.43;2.80;;;8.30;94.10;;;;;;5053638;28;20044;-30
2023/12/22 09:40:16;;;;;;;13.77;2.92;;;8.40;94.00;;;;;;5053499;28;20021;-33
2023/12/22 09:42:43;;;;;;;11.23;2.40;;;8.40;94.10;;;;;;5053591;28;20029;-34
2023/12/22 09:45:12;;;;;;;7.60;2.13;;;8.40;94.00;;;;;;5053587;28;20377;-32
2023/12/22 09:47:41;;;;;;;11.95;2.30;;;8.50;94.10;;;;;;5053124;28;20056;-31
2023/12/22 09:50:08;;;;;;;12.50;2.72;;;8.60;94.10;;;;;;5053321;28;20055;-32
2023/12/22 09:52:35;;;;;;;8.73;2.30;;;8.60;94.00;;;;;;5053146;28;20051;-31
2023/12/22 09:55:02;;;;;;;10.52;2.05;;;8.60;94.00;;;;;;5053140;28;20025;-30
2023/12/22 09:57:30;;;;;;;10.77;1.98;;;8.60;94.00;;;;;;5053128;28;20029;-31
2023/12/22 09:59:57;;;;;;;9.73;2.08;;;8.50;93.90;;;;;;5052866;28;20031;-31
2023/12/22 10:02:27;;;;;;;6.32;1.40;;;8.50;93.80;;;;;;5053100;28;20029;-32
2023/12/22 10:04:53;;;;;;;4.63;1.23;;;8.50;93.70;;;;;;5052972;28;20543;-31
2023/12/22 10:07:20;;;;;;;5.38;1.30;;;8.40;93.70;;;;;;5052746;28;20021;-30
2023/12/22 10:09:47;;;;;;;6.15;1.25;;;8.40;93.80;;;;;;5052689;28;20108;-30
2023/12/22 10:12:14;;;;;;;4.07;1.38;;;8.30;93.80;;;;;;5053271;28;20520;-31
2023/12/22 10:14:41;;;;;;;3.38;1.00;;;8.20;93.70;;;;;;5052954;28;20460;-35
2023/12/22 10:17:07;;;;;;;2.67;0.85;;;8.20;93.80;;;;;;5052637;28;20032;-30
2023/12/22 10:19:32;;;;;;;5.45;0.80;;;8.20;93.80;;;;;;5052660;28;20028;-33
2023/12/22 10:21:58;;;;;;;4.65;1.55;;;8.20;93.90;;;;;;5052658;28;20024;-30
2023/12/22 10:24:50;;;;;;;4.38;1.30;;;8.20;94.00;;;;;;5052627;28;20035;-33
2023/12/22 10:27:22;;;;;;;3.70;1.10;;;8.20;94.00;;;;;;5052596;28;20435;-33
2023/12/22 10:29:48;;;;;;;7.35;1.38;;;8.20;94.10;;;;;;5052223;28;20025;-30
2023/12/22 10:32:14;;;;;;;5.70;1.38;;;8.20;94.20;;;;;;5052297;28;20045;-31
2023/12/22 10:34:39;;;;;;;7.43;1.67;;;8.20;94.20;;;;;;5052316;28;20024;-31
2023/12/22 10:37:05;;;;;;;4.85;1.50;;;8.30;94.60;;;;;;5052051;28;20092;-34
2023/12/22 10:39:31;;;;;;;6.75;1.52;;;8.40;94.40;;;;;;5052078;28;20023;-32
2023/12/22 10:41:58;;;;;;;8.05;2.10;;;8.50;94.50;;;;;;5052371;28;20100;-31
2023/12/22 10:44:28;;;;;;;7.38;1.77;;;8.50;94.50;;;;;;5052410;28;20029;-32
2023/12/22 10:46:55;;;;;;;4.82;1.67;;;8.60;94.60;;;;;;5052090;28;20485;-31
2023/12/22 10:49:22;;;;;;;9.05;1.70;;;8.70;94.60;;;;;;5050543;28;20565;-33
2023/12/22 10:51:47;;;;;;;11.43;2.60;;;8.80;94.70;;;;;;5052508;28;20086;-32
2023/12/22 10:54:14;;;;;;;9.35;3.03;;;8.90;94.60;;;;;;5052251;28;20482;-31
2023/12/22 10:56:39;;;;;;;7.47;2.45;;;8.90;94.70;;;;;;5052106;28;20025;-31
2023/12/22 10:59:08;;;;;;;3.78;1.73;;;8.90;94.70;;;;;;5052083;28;20465;-36
2023/12/22 11:01:39;;;;;;;10.10;2.25;;;8.80;94.70;;;;;;5051562;28;20027;-31
2023/12/22 11:04:10;;;;;;;6.22;2.10;;;8.90;94.90;;;;;;5052177;28;20472;-31
2023/12/22 11:06:37;;;;;;;6.13;2.03;;;8.80;94.90;;;;;;5052100;28;20033;-35
2023/12/22 11:09:10;;;;;;;8.60;2.63;;;8.80;95.00;;;;;;5051993;28;20528;-29
2023/12/22 11:11:38;;;;;;;9.75;2.05;;;8.90;95.00;;;;;;5051643;28;20031;-34
2023/12/22 11:14:06;;;;;;;6.32;1.52;;;8.90;95.20;;;;;;5051605;28;20055;-36
2023/12/22 11:16:34;;;;;;;4.38;1.40;;;8.90;95.30;;;;;;5051892;28;20516;-33
2023/12/22 11:19:01;;;;;;;8.10;1.80;;;8.90;95.20;;;;;;5051622;28;20419;-36
2023/12/22 11:21:28;;;;;;;10.70;2.63;;;8.80;95.20;;;;;;5051540;28;20021;-34
2023/12/22 11:23:55;;;;;;;8.35;2.30;;;8.80;95.20;;;;;;5051552;28;20057;-38
2023/12/22 11:26:22;;;;;;;8.80;2.45;;;8.90;95.20;;;;;;5050358;28;20029;-39
2023/12/22 11:28:50;;;;;;;8.82;2.38;;;8.90;95.30;;;;;;5051326;28;20111;-33
2023/12/22 11:31:16;;;;;;;8.73;2.38;;;8.90;95.30;;;;;;5051614;28;20032;-33
2023/12/22 11:33:47;;;;;;;11.13;1.95;;;9.00;95.40;;;;;;5051264;28;20079;-36
2023/12/22 11:36:14;;;;;;;10.65;2.65;;;9.00;95.40;;;;;;5051476;28;20029;-37
2023/12/22 11:38:41;;;;;;;8.48;2.05;;;9.00;95.40;;;;;;5051389;28;20051;-40
2023/12/22 11:41:12;;;;;;;6.75;1.88;;;9.10;95.40;;;;;;5051310;28;20028;-31
2023/12/22 11:43:40;;;;;;;10.88;2.33;;;9.10;95.30;;;;;;5051325;28;20086;-35
2023/12/22 11:46:06;;;;;;;6.38;1.85;;;9.20;95.30;;;;;;5051497;28;20025;-31
2023/12/22 11:48:32;;;;;;;5.70;1.58;;;9.20;95.10;;;;;;5051090;28;20029;-36
2023/12/22 11:50:58;;;;;;;8.15;2.00;;;9.20;95.10;;;;;;5055496;28;20385;-30
2023/12/22 11:53:25;;;;;;;5.68;1.92;;;9.20;95.00;;;;;;5055496;28;20028;-35
2023/12/22 11:56:05;;;;;;;5.22;2.03;;;9.30;95.00;;;;;;5055631;28;20572;-31
2023/12/22 11:58:51;;;;;;;6.80;1.98;;;9.30;94.80;;;;;;5055141;28;20032;-38
2023/12/22 12:01:18;;;;;;;12.90;2.20;;;9.30;94.80;;;;;;5055217;28;20030;-31
2023/12/22 12:03:51;;;;;;;8.98;1.70;;;9.30;94.80;;;;;;5055479;28;20052;-35
2023/12/22 12:06:26;;;;;;;6.35;1.70;;;9.30;94.80;;;;;;5055107;28;20033;-34
2023/12/22 12:08:53;;;;;;;7.22;1.60;;;9.20;94.90;;;;;;5054894;28;20025;-35
2023/12/22 12:11:19;;;;;;;9.00;1.90;;;9.30;94.80;;;;;;5055431;28;20017;-37
2023/12/22 12:13:46;;;;;;;8.32;2.00;;;9.30;94.80;;;;;;5055160;28;20525;-34
2023/12/22 12:16:18;;;;;;;10.95;1.65;;;9.30;94.80;;;;;;5055131;28;20043;-32
2023/12/22 12:18:45;;;;;;;5.97;1.60;;;9.30;94.80;;;;;;5054933;28;20508;-30
2023/12/22 12:21:11;;;;;;;7.35;1.65;;;9.20;94.80;;;;;;5055201;28;20100;-30
2023/12/22 12:23:37;;;;;;;7.55;1.70;;;9.30;94.80;;;;;;5054954;28;20392;-32
2023/12/22 12:26:03;;;;;;;7.40;1.90;;;9.30;94.80;;;;;;5055035;28;20022;-29
2023/12/22 12:28:30;;;;;;;8.27;1.85;;;9.30;94.80;;;;;;5054755;28;20021;-32
2023/12/22 12:31:08;;;;;;;10.35;1.90;;;9.30;94.70;;;;;;5054660;28;20024;-30
2023/12/22 12:33:35;;;;;;;6.85;1.70;;;9.30;94.70;;;;;;5054458;28;20621;-32
2023/12/22 12:36:05;;;;;;;7.47;2.00;;;9.30;94.70;;;;;;5054739;28;20052;-31
2023/12/22 12:39:07;;;;;;;9.55;1.92;;;9.30;94.60;;;;;;5054703;28;20039;-34
2023/12/22 12:41:40;;;;;;;6.15;1.52;;;9.30;94.60;;;;;;5054716;28;20086;-31
2023/12/22 12:44:08;;;;;;;10.73;1.80;;;9.30;94.60;;;;;;5054496;28;20055;-32
2023/12/22 12:46:38;;;;;;;7.25;1.70;;;9.30;94.60;;;;;;5054687;28;20465;-35
2023/12/22 12:49:05;;;;;;;7.03;2.35;;;9.30;94.60;;;;;;5052743;28;20082;-34
2023/12/22 12:51:39;;;;;;;7.70;1.35;;;9.30;94.60;;;;;;5054338;28;20028;-36